Sparta, MI (49345)

8:38 PM EST on February 10, 2016 (GMT -0500)
Seasons Change Services LLC | | Change Station
CLOSE
Current Station
Personal Weather Station
Location: Sparta, MI
Elevation: 761 ft
Nearby Weather Stations

Elev 761 ft 43.16 °N, 85.70 °W | Updated 12 seconds ago

Partly Cloudy
Partly Cloudy
13.5 °F
Feels Like 7 °F
N
3.6
Wind Variable Wind from WSW
Gusts 4.9 mph

Today
High -- | Low -- °F
--% Chance of Precip.
Yesterday
High -- | Low -- °F
Precip. -- in
Pressure 30.06 in
Visibility 10.0 miles
Clouds Few 2200 ft
Few 5500 ft
Windchill 7 °F
Dew Point 4 °F
Humidity 67%
Rainfall 0.00 in
Snow Depth Not available.
7:48 AM 6:06 PM
Waxing Crescent, 8% visible
METAR KGRR 110053Z 30010KT 10SM FEW022 FEW055 M09/M14 A3002 RMK AO2 SLP180 T10941139
Pressure 30.06 in
Visibility 10.0 miles
Clouds Few 2200 ft
Few 5500 ft
Windchill 7 °F
Dew Point 4 °F
Humidity 67%
Rainfall 0.00 in
Snow Depth Not available.
7:48 AM 6:06 PM
Waxing Crescent, 8% visible
METAR KGRR 110053Z 30010KT 10SM FEW022 FEW055 M09/M14 A3002 RMK AO2 SLP180 T10941139

10-Day Weather Forecast

Almanac

Astronomy

Feb. 10, 2016 Rise Set
Actual Time
Civil Twilight
Nautical Twilight
Astronomical Twilight
Moon
Length of Visible Light
Length of Day
Tomorrow will be .
, % of the Moon is Illuminated

Today's Extremes

State Highs State Lows

Community

WunderPhotos

Upload Photos

1,891,965 photos uploaded!

WunderBlog® & News

Nearby

Air Quality

  Air Quality AQ Index Pollutant
Not available.

Snow Depth

Station Depth Elevation

Earthquake Activity

City Distance Mag. Time & Date
Minimum magnitude displayed is 2.5.

Coastal Water Temperatures

Place Temperature

Stations

Nearby Weather Stations

Station Location Temp. Windchill Dew Point Humidity Wind Precip. Elev Updated Type
                   

Watches & Warnings

There are currently no watches in effect.